Time;durP1;ratioP1;P1;durP2;ratioP2;P2;SDS_P1;SDS_P2;PMS_P1;PMS_P2;Temp;Humidity;BMP_temperature;BMP_pressure;BME280_temperature;BME280_humidity;BME280_pressure;Samples;Min_cycle;Max_cycle;Signal;HPM_P1;HPM_P2
2021/12/26 00:01:00;;;;;;;2.65;1.23;;;10.90;60.40;;;;;;5081032;28;20046;-72
2021/12/26 00:03:28;;;;;;;4.80;1.88;;;10.90;59.80;;;;;;5092070;28;20055;-72
2021/12/26 00:05:57;;;;;;;5.75;1.92;;;11.00;57.60;;;;;;5070393;28;20053;-72
2021/12/26 00:08:23;;;;;;;3.95;1.73;;;11.10;57.30;;;;;;5075228;28;20055;-72
2021/12/26 00:10:49;;;;;;;5.47;2.20;;;11.20;57.30;;;;;;5075868;28;20051;-72
2021/12/26 00:13:17;;;;;;;4.03;1.75;;;11.20;57.20;;;;;;5075998;28;20368;-73
2021/12/26 00:15:43;;;;;;;5.82;2.00;;;11.30;56.90;;;;;;5094141;28;20036;-72
2021/12/26 00:18:11;;;;;;;4.60;2.17;;;11.40;57.10;;;;;;5096597;28;20362;-72
2021/12/26 00:20:38;;;;;;;4.65;2.25;;;11.40;56.90;;;;;;5095775;28;20116;-72
2021/12/26 00:23:05;;;;;;;3.60;2.17;;;11.40;56.90;;;;;;5096054;28;20447;-72
2021/12/26 00:25:32;;;;;;;4.60;2.22;;;11.40;57.00;;;;;;5083837;28;20055;-72
2021/12/26 00:27:58;;;;;;;5.05;1.85;;;11.40;56.70;;;;;;5076454;28;20119;-73
2021/12/26 00:30:24;;;;;;;7.05;2.72;;;11.40;56.60;;;;;;5074351;28;20056;-72
2021/12/26 00:32:50;;;;;;;4.80;2.08;;;11.40;56.60;;;;;;5075544;28;20472;-73
2021/12/26 00:35:18;;;;;;;5.28;2.10;;;11.50;56.50;;;;;;5075996;28;20049;-73
2021/12/26 00:37:45;;;;;;;4.18;1.80;;;11.40;56.30;;;;;;5075606;28;20052;-72
2021/12/26 00:40:13;;;;;;;4.85;2.08;;;11.50;56.40;;;;;;5075876;28;20059;-73
2021/12/26 00:42:40;;;;;;;3.80;2.17;;;11.40;56.30;;;;;;5075383;28;20053;-72
2021/12/26 00:45:07;;;;;;;5.05;1.92;;;11.40;56.40;;;;;;5075195;28;20045;-72
2021/12/26 00:47:33;;;;;;;5.72;2.47;;;11.40;56.30;;;;;;5057341;28;20154;-72
2021/12/26 00:50:00;;;;;;;3.92;2.17;;;11.40;56.40;;;;;;5075193;28;20064;-72
2021/12/26 00:52:26;;;;;;;3.72;2.13;;;11.40;56.30;;;;;;5075268;28;20056;-73
2021/12/26 00:54:53;;;;;;;2.67;1.80;;;11.40;56.30;;;;;;5076034;28;20044;-73
2021/12/26 00:57:19;;;;;;;3.25;1.95;;;11.40;56.10;;;;;;5075130;28;20056;-73
2021/12/26 00:59:45;;;;;;;4.85;2.55;;;11.40;56.20;;;;;;5075082;28;20432;-73
2021/12/26 01:02:11;;;;;;;3.45;1.80;;;11.30;56.30;;;;;;5082930;28;20036;-72
2021/12/26 01:04:39;;;;;;;3.15;1.90;;;11.40;56.10;;;;;;5094693;28;20054;-72
2021/12/26 01:07:17;;;;;;;4.57;1.88;;;11.40;55.90;;;;;;5095569;28;20052;-71
2021/12/26 01:09:47;;;;;;;2.92;1.50;;;11.40;55.90;;;;;;5094804;28;20440;-72
2021/12/26 01:12:15;;;;;;;8.20;2.03;;;11.40;55.90;;;;;;5095214;28;20111;-72
2021/12/26 01:14:48;;;;;;;4.65;1.80;;;11.40;56.10;;;;;;5095253;28;20048;-72
2021/12/26 01:17:18;;;;;;;3.53;2.08;;;11.40;56.20;;;;;;5095382;28;20048;-72
2021/12/26 01:19:48;;;;;;;4.80;1.90;;;11.30;56.30;;;;;;5095323;28;20391;-72
2021/12/26 01:22:15;;;;;;;3.55;2.10;;;11.30;56.20;;;;;;5095284;28;20082;-72
2021/12/26 01:24:43;;;;;;;3.53;1.40;;;11.30;56.20;;;;;;5095079;28;20044;-73
2021/12/26 01:27:09;;;;;;;3.78;2.00;;;11.30;56.30;;;;;;5095304;28;20052;-73
2021/12/26 01:29:36;;;;;;;2.88;1.23;;;11.20;56.90;;;;;;5095225;28;20408;-72
2021/12/26 01:32:04;;;;;;;6.18;1.67;;;11.20;56.50;;;;;;5083295;28;20055;-72
2021/12/26 01:34:30;;;;;;;4.95;1.30;;;11.20;56.50;;;;;;5069876;28;20491;-72
2021/12/26 01:36:56;;;;;;;5.10;1.80;;;11.20;56.50;;;;;;5075076;28;20056;-72
2021/12/26 01:39:23;;;;;;;5.50;1.58;;;11.20;56.00;;;;;;5074524;28;20040;-72
2021/12/26 01:41:49;;;;;;;3.58;1.70;;;11.20;56.10;;;;;;5057020;28;20044;-72
2021/12/26 01:44:16;;;;;;;4.05;1.77;;;11.20;55.90;;;;;;5074562;28;20051;-73
2021/12/26 01:46:44;;;;;;;2.67;1.50;;;11.20;55.80;;;;;;5074622;28;20059;-73
2021/12/26 01:49:20;;;;;;;2.88;1.55;;;11.30;55.80;;;;;;5057201;28;20057;-73
2021/12/26 01:51:48;;;;;;;3.88;1.65;;;11.30;55.80;;;;;;5075370;28;20056;-72
2021/12/26 01:54:27;;;;;;;2.95;1.48;;;11.30;55.70;;;;;;5075112;28;20041;-73
2021/12/26 01:56:53;;;;;;;4.13;1.58;;;11.20;55.80;;;;;;5074497;28;20132;-73
2021/12/26 01:59:19;;;;;;;3.83;1.35;;;11.20;56.00;;;;;;5074534;28;20124;-72
2021/12/26 02:01:44;;;;;;;2.13;0.82;;;11.10;55.90;;;;;;5074166;28;20052;-73
2021/12/26 02:04:11;;;;;;;2.88;1.50;;;11.10;55.90;;;;;;5057668;28;20526;-73
2021/12/26 02:06:37;;;;;;;1.60;0.95;;;11.10;56.00;;;;;;5075047;28;20091;-72
2021/12/26 02:09:03;;;;;;;2.63;1.35;;;11.10;55.70;;;;;;5056979;28;20428;-73
2021/12/26 02:11:29;;;;;;;3.80;1.35;;;11.20;55.80;;;;;;5074455;28;20040;-73
2021/12/26 02:13:54;;;;;;;3.40;1.15;;;11.10;55.60;;;;;;5075541;28;20044;-73
2021/12/26 02:16:23;;;;;;;3.65;1.40;;;11.10;55.60;;;;;;5078421;28;20052;-73
2021/12/26 02:18:49;;;;;;;2.33;1.25;;;11.10;55.50;;;;;;5078398;28;20110;-73
2021/12/26 02:24:07;;;;;;;4.80;1.38;;;11.10;55.70;;;;;;5078286;28;20045;-73
2021/12/26 02:29:17;;;;;;;2.83;0.95;;;11.00;56.10;;;;;;5077737;28;20060;-73
2021/12/26 02:31:42;;;;;;;1.85;0.85;;;11.00;56.10;;;;;;5094242;28;20105;-73
2021/12/26 02:34:09;;;;;;;3.78;1.60;;;10.90;56.30;;;;;;5098707;28;20405;-72
2021/12/26 02:36:34;;;;;;;3.63;1.73;;;10.90;56.10;;;;;;5098376;28;20040;-73
2021/12/26 02:39:00;;;;;;;3.60;1.00;;;10.90;56.20;;;;;;5098208;28;20101;-73
2021/12/26 02:41:26;;;;;;;2.92;1.13;;;10.90;56.30;;;;;;5096074;28;20048;-73
2021/12/26 02:43:52;;;;;;;2.60;1.02;;;10.80;56.60;;;;;;5097818;28;20054;-72
2021/12/26 02:46:18;;;;;;;3.05;1.10;;;10.80;56.80;;;;;;5097778;28;20103;-73
2021/12/26 02:48:44;;;;;;;4.32;1.00;;;10.70;56.90;;;;;;5080119;28;20473;-73
2021/12/26 02:51:10;;;;;;;2.55;1.00;;;10.60;56.90;;;;;;5097737;28;20083;-72
2021/12/26 02:53:36;;;;;;;3.90;1.17;;;10.60;57.00;;;;;;5097808;28;20120;-73
2021/12/26 02:56:03;;;;;;;2.00;0.75;;;10.60;57.20;;;;;;5097668;28;20044;-72
2021/12/26 02:58:29;;;;;;;1.75;0.77;;;10.60;57.10;;;;;;5097501;28;20118;-73
2021/12/26 03:00:59;;;;;;;2.85;0.75;;;10.60;57.10;;;;;;5095622;28;20048;-73
2021/12/26 03:03:25;;;;;;;4.00;1.13;;;10.60;54.90;;;;;;5097660;28;20071;-72
2021/12/26 03:06:10;;;;;;;3.33;1.05;;;10.50;53.00;;;;;;5097436;28;20431;-73
2021/12/26 03:08:36;;;;;;;4.43;1.48;;;10.40;51.40;;;;;;5097652;28;20109;-73
2021/12/26 03:11:02;;;;;;;2.30;1.08;;;10.20;51.10;;;;;;5097436;28;20459;-72
2021/12/26 03:13:28;;;;;;;2.22;1.00;;;10.10;50.60;;;;;;5097126;28;20044;-73
2021/12/26 03:15:54;;;;;;;3.63;1.20;;;9.90;50.10;;;;;;5097400;28;20048;-73
2021/12/26 03:18:19;;;;;;;2.88;1.10;;;9.80;49.20;;;;;;5097415;28;20055;-72
2021/12/26 03:20:48;;;;;;;2.83;0.90;;;9.60;49.00;;;;;;5097380;28;20139;-72
2021/12/26 03:23:16;;;;;;;3.55;1.40;;;9.50;48.80;;;;;;5096855;28;20130;-73
2021/12/26 03:25:42;;;;;;;2.42;1.02;;;9.50;48.60;;;;;;5096320;28;20091;-72
2021/12/26 03:28:10;;;;;;;2.88;1.40;;;9.50;48.90;;;;;;5096784;28;20044;-73
2021/12/26 03:30:37;;;;;;;1.77;1.08;;;9.50;48.30;;;;;;5075025;28;20091;-73
2021/12/26 03:33:05;;;;;;;4.00;1.02;;;9.50;48.20;;;;;;5076842;28;20056;-73
2021/12/26 03:35:32;;;;;;;4.00;1.10;;;9.40;47.60;;;;;;5059348;28;20185;-73
2021/12/26 03:37:59;;;;;;;2.40;1.02;;;9.40;47.80;;;;;;5076945;28;20101;-72
2021/12/26 03:40:25;;;;;;;2.70;0.75;;;9.40;47.50;;;;;;5076573;28;20135;-72
2021/12/26 03:42:53;;;;;;;2.08;1.02;;;9.30;47.40;;;;;;5077039;28;20044;-72
2021/12/26 03:45:20;;;;;;;2.22;1.15;;;9.20;47.50;;;;;;5076834;28;20048;-72
2021/12/26 03:47:49;;;;;;;2.38;0.73;;;9.20;47.40;;;;;;5058386;28;20460;-73
2021/12/26 03:50:16;;;;;;;3.50;0.98;;;9.20;47.10;;;;;;5076179;28;20360;-72
2021/12/26 03:52:42;;;;;;;4.10;1.05;;;9.10;47.10;;;;;;5076424;28;20051;-72
2021/12/26 03:55:08;;;;;;;2.92;0.90;;;9.00;46.90;;;;;;5059210;28;20044;-73
2021/12/26 03:57:34;;;;;;;2.35;1.02;;;8.90;46.90;;;;;;5076301;28;20131;-74
2021/12/26 03:59:59;;;;;;;2.08;1.10;;;8.90;47.10;;;;;;5075960;28;20124;-73
2021/12/26 04:02:25;;;;;;;1.88;1.10;;;9.00;46.70;;;;;;5076114;28;20113;-73
2021/12/26 04:04:51;;;;;;;2.63;1.25;;;8.90;46.90;;;;;;5076422;28;20514;-72
2021/12/26 04:07:17;;;;;;;2.67;1.20;;;8.90;47.00;;;;;;5075907;28;20033;-72
2021/12/26 04:09:43;;;;;;;2.78;1.45;;;8.80;46.90;;;;;;5076552;28;20084;-73
2021/12/26 04:12:09;;;;;;;2.47;1.17;;;8.70;46.20;;;;;;5076354;28;20474;-72
2021/12/26 04:14:35;;;;;;;3.25;1.42;;;8.60;46.70;;;;;;5076288;28;20117;-73
2021/12/26 04:17:00;;;;;;;1.90;1.05;;;8.60;46.70;;;;;;5058805;28;20443;-73
2021/12/26 04:19:26;;;;;;;1.77;1.17;;;8.70;46.80;;;;;;5076080;28;20347;-74
2021/12/26 04:21:52;;;;;;;1.55;1.10;;;8.60;47.00;;;;;;5075917;28;20105;-74
2021/12/26 04:24:18;;;;;;;1.50;1.00;;;8.60;46.90;;;;;;5076006;28;20046;-73
2021/12/26 04:26:44;;;;;;;2.28;1.13;;;8.60;46.90;;;;;;5076191;28;20044;-72
2021/12/26 04:29:10;;;;;;;2.50;1.00;;;8.60;46.80;;;;;;5075244;28;20055;-74
2021/12/26 04:31:37;;;;;;;2.13;1.20;;;8.60;46.90;;;;;;5058342;28;20052;-72
2021/12/26 04:34:03;;;;;;;1.83;0.90;;;8.70;46.70;;;;;;5076366;28;20189;-73
2021/12/26 04:36:29;;;;;;;2.67;1.27;;;8.70;47.00;;;;;;5058222;28;20444;-73
2021/12/26 04:38:55;;;;;;;1.48;1.05;;;8.70;46.20;;;;;;5075508;28;20048;-72
2021/12/26 04:41:21;;;;;;;1.48;0.82;;;8.70;46.30;;;;;;5075697;28;20124;-72
2021/12/26 04:43:47;;;;;;;2.55;1.15;;;8.60;46.50;;;;;;5075750;28;20517;-73
2021/12/26 04:46:13;;;;;;;2.28;0.98;;;8.60;46.10;;;;;;5057731;28;20509;-72
2021/12/26 04:48:41;;;;;;;2.03;1.15;;;8.60;46.30;;;;;;5075308;28;20048;-73
2021/12/26 04:51:09;;;;;;;1.98;1.15;;;8.40;45.70;;;;;;5075357;28;20388;-73
2021/12/26 04:53:36;;;;;;;1.85;1.13;;;8.40;46.60;;;;;;5075677;28;20055;-72
2021/12/26 04:56:03;;;;;;;1.35;0.60;;;8.40;46.40;;;;;;5075727;28;20055;-72
2021/12/26 04:58:29;;;;;;;2.67;1.25;;;8.40;46.30;;;;;;5075174;28;20460;-73
2021/12/26 05:00:55;;;;;;;1.95;0.90;;;8.40;46.30;;;;;;5075497;28;20059;-72
2021/12/26 05:03:21;;;;;;;3.95;1.30;;;8.40;46.30;;;;;;5074914;28;20391;-73
2021/12/26 05:05:47;;;;;;;2.13;0.95;;;8.30;46.10;;;;;;5075404;28;20146;-73
2021/12/26 05:08:13;;;;;;;2.40;0.93;;;8.20;46.10;;;;;;5075065;28;20427;-72
2021/12/26 05:10:39;;;;;;;1.50;0.80;;;8.20;46.70;;;;;;5074583;28;20052;-73
2021/12/26 05:13:06;;;;;;;2.47;1.10;;;8.20;46.20;;;;;;5075031;28;20054;-74
2021/12/26 05:15:32;;;;;;;1.67;0.80;;;8.10;46.60;;;;;;5075167;28;20533;-72
2021/12/26 05:17:59;;;;;;;1.92;1.33;;;8.10;46.60;;;;;;5075249;28;20137;-72
2021/12/26 05:20:26;;;;;;;1.95;1.00;;;8.10;46.20;;;;;;5057510;28;20062;-73
2021/12/26 05:22:54;;;;;;;14.10;1.48;;;8.10;46.60;;;;;;5075125;28;20052;-72
2021/12/26 05:25:21;;;;;;;3.00;0.93;;;8.30;47.80;;;;;;5075760;28;20040;-74
2021/12/26 05:27:47;;;;;;;2.10;0.98;;;8.60;47.90;;;;;;5075114;28;20063;-72
2021/12/26 05:30:15;;;;;;;4.65;1.27;;;8.90;46.80;;;;;;5074474;28;20036;-74
2021/12/26 05:32:42;;;;;;;2.72;0.95;;;9.10;45.30;;;;;;5075352;28;20052;-73
2021/12/26 05:35:10;;;;;;;4.65;1.42;;;9.20;43.90;;;;;;5074399;28;20114;-73
2021/12/26 05:37:37;;;;;;;1.90;0.80;;;9.30;42.60;;;;;;5074747;28;20102;-73
2021/12/26 05:40:04;;;;;;;3.13;1.35;;;9.40;41.50;;;;;;5074466;28;20541;-72
2021/12/26 05:42:31;;;;;;;2.95;1.70;;;9.40;40.30;;;;;;5057217;28;20045;-75
2021/12/26 05:44:56;;;;;;;4.03;0.98;;;9.50;39.70;;;;;;5074883;28;20056;-80
2021/12/26 05:47:23;;;;;;;1.45;0.80;;;9.50;39.00;;;;;;5056694;28;20079;-74
2021/12/26 05:49:49;;;;;;;2.28;1.20;;;9.50;38.70;;;;;;5076017;28;20051;-73
2021/12/26 05:52:14;;;;;;;8.55;1.20;;;9.50;39.80;;;;;;5078665;28;20040;-76
2021/12/26 05:54:41;;;;;;;3.83;0.75;;;9.50;41.20;;;;;;5085235;28;20044;-71
2021/12/26 05:57:07;;;;;;;2.55;1.00;;;9.60;42.10;;;;;;5083237;28;20044;-74
2021/12/26 05:59:33;;;;;;;1.83;0.85;;;9.70;42.60;;;;;;5082454;28;20349;-70
2021/12/26 06:01:59;;;;;;;4.45;1.20;;;9.70;43.10;;;;;;5091423;28;20047;-72
2021/12/26 06:04:25;;;;;;;2.58;1.00;;;9.90;42.60;;;;;;5081826;28;20316;-74
2021/12/26 06:06:52;;;;;;;5.53;1.10;;;9.90;43.30;;;;;;5078755;28;20048;-74
2021/12/26 06:09:18;;;;;;;6.60;2.50;;;9.60;44.70;;;;;;5079021;28;20036;-72
2021/12/26 06:11:44;;;;;;;4.03;0.80;;;10.10;45.50;;;;;;5044091;28;20041;-71
2021/12/26 06:14:10;;;;;;;7.38;1.67;;;10.50;45.40;;;;;;5078284;28;20037;-72
2021/12/26 06:16:36;;;;;;;7.13;0.98;;;10.90;45.60;;;;;;5078317;28;20057;-71
2021/12/26 06:19:02;;;;;;;5.60;1.20;;;11.20;46.00;;;;;;5097599;28;20044;-70
2021/12/26 06:21:28;;;;;;;4.63;1.05;;;11.50;45.70;;;;;;5103578;28;20051;-74
2021/12/26 06:23:53;;;;;;;2.25;1.02;;;11.80;46.00;;;;;;5101626;28;20044;-73
2021/12/26 06:26:24;;;;;;;11.48;1.50;;;12.10;46.60;;;;;;5098371;28;20359;-73
2021/12/26 06:28:51;;;;;;;7.25;1.08;;;12.30;47.00;;;;;;5098472;28;20358;-73
2021/12/26 06:31:17;;;;;;;7.90;1.63;;;12.50;46.70;;;;;;5098078;28;20043;-73
2021/12/26 06:33:43;;;;;;;6.53;1.13;;;12.70;46.80;;;;;;5098090;28;20362;-73
2021/12/26 06:36:09;;;;;;;5.40;1.08;;;12.80;46.90;;;;;;5098353;28;20056;-73
2021/12/26 06:38:39;;;;;;;5.22;1.40;;;12.90;46.70;;;;;;5098220;28;20102;-75
2021/12/26 06:41:06;;;;;;;4.65;1.00;;;13.00;47.00;;;;;;5080405;28;20054;-75
2021/12/26 06:43:33;;;;;;;5.20;1.13;;;13.20;46.90;;;;;;5111948;28;20408;-74
2021/12/26 06:46:00;;;;;;;6.18;1.15;;;13.30;46.90;;;;;;5104595;28;20059;-75
2021/12/26 06:48:26;;;;;;;3.25;1.00;;;13.40;46.90;;;;;;5106790;28;20062;-74
2021/12/26 06:50:52;;;;;;;2.40;1.20;;;13.60;46.90;;;;;;5118433;28;20087;-73
2021/12/26 06:53:19;;;;;;;3.22;0.70;;;13.70;47.10;;;;;;5116978;28;20044;-75
2021/12/26 06:55:46;;;;;;;5.45;1.02;;;13.80;47.80;;;;;;5071971;28;20174;-75
2021/12/26 06:58:12;;;;;;;7.72;1.08;;;13.90;47.30;;;;;;5074096;28;20091;-77
2021/12/26 07:00:38;;;;;;;4.80;1.00;;;14.00;47.50;;;;;;5076142;28;20041;-73
2021/12/26 07:03:04;;;;;;;5.50;1.08;;;13.70;46.20;;;;;;5077537;28;20086;-73
2021/12/26 07:05:30;;;;;;;8.70;1.00;;;13.90;47.30;;;;;;5077282;28;20040;-75
2021/12/26 07:07:56;;;;;;;4.50;1.17;;;14.00;47.10;;;;;;5077409;28;20178;-76
2021/12/26 07:10:22;;;;;;;6.50;1.35;;;14.00;47.30;;;;;;5086943;28;20177;-75
2021/12/26 07:12:48;;;;;;;5.78;1.50;;;14.10;47.20;;;;;;5079272;28;20044;-77
2021/12/26 07:15:14;;;;;;;12.82;1.75;;;14.20;47.70;;;;;;5081388;28;20123;-76
2021/12/26 07:17:41;;;;;;;6.90;1.55;;;14.30;47.50;;;;;;5097030;28;20043;-75
2021/12/26 07:20:09;;;;;;;6.10;1.23;;;14.40;47.60;;;;;;5067109;28;20048;-76
2021/12/26 07:22:35;;;;;;;8.85;1.23;;;14.50;47.70;;;;;;5077198;28;20074;-76
2021/12/26 07:25:01;;;;;;;6.38;1.52;;;14.60;47.60;;;;;;5075814;28;20471;-75
2021/12/26 07:27:27;;;;;;;6.32;1.20;;;14.80;47.60;;;;;;5058863;28;20033;-76
2021/12/26 07:29:53;;;;;;;6.25;1.67;;;14.80;48.00;;;;;;5076490;28;20106;-75
2021/12/26 07:32:19;;;;;;;10.00;1.65;;;14.90;47.90;;;;;;5076850;28;20037;-75
2021/12/26 07:34:45;;;;;;;8.38;1.20;;;15.00;47.80;;;;;;5080839;28;20051;-74
2021/12/26 07:37:10;;;;;;;6.15;1.70;;;15.10;47.60;;;;;;5059365;28;20044;-73
2021/12/26 07:39:36;;;;;;;5.85;1.23;;;15.20;47.40;;;;;;5077106;28;20427;-74
2021/12/26 07:42:04;;;;;;;7.00;1.65;;;15.20;46.80;;;;;;5059310;28;20048;-74
2021/12/26 07:44:29;;;;;;;4.05;1.15;;;15.20;45.10;;;;;;5076494;28;20044;-75
2021/12/26 07:46:55;;;;;;;17.48;3.00;;;15.00;46.90;;;;;;5042494;28;20063;-74
2021/12/26 07:49:23;;;;;;;7.80;1.70;;;14.70;44.60;;;;;;5076772;28;20071;-73
2021/12/26 07:51:50;;;;;;;9.75;1.25;;;14.50;47.10;;;;;;5076805;28;20055;-75
2021/12/26 07:54:16;;;;;;;7.93;1.67;;;14.70;47.10;;;;;;5076712;28;20088;-76
2021/12/26 07:56:43;;;;;;;3.33;1.20;;;14.90;46.60;;;;;;5058952;28;20045;-74
2021/12/26 07:59:11;;;;;;;4.38;1.48;;;15.10;46.30;;;;;;5059568;28;20048;-74
2021/12/26 08:01:37;;;;;;;6.70;1.50;;;15.20;46.00;;;;;;5058701;28;20048;-75
2021/12/26 08:04:05;;;;;;;5.15;1.00;;;15.40;45.80;;;;;;5076156;28;20097;-75
2021/12/26 08:06:31;;;;;;;4.32;1.10;;;15.50;45.70;;;;;;5076402;28;20040;-73
2021/12/26 08:08:57;;;;;;;7.18;1.05;;;15.60;45.50;;;;;;5076040;28;20149;-75
2021/12/26 08:11:23;;;;;;;3.53;1.20;;;15.70;45.40;;;;;;5075947;28;20486;-74
2021/12/26 08:13:49;;;;;;;2.45;1.00;;;15.70;45.20;;;;;;5057958;28;20069;-73
2021/12/26 08:16:15;;;;;;;4.45;1.10;;;15.80;45.10;;;;;;5075954;28;20127;-75
2021/12/26 08:18:42;;;;;;;4.78;1.20;;;15.90;44.80;;;;;;5076034;28;20037;-75
2021/12/26 08:21:08;;;;;;;3.17;0.98;;;16.00;44.80;;;;;;5076684;28;20047;-72
2021/12/26 08:23:34;;;;;;;3.08;1.10;;;16.00;44.70;;;;;;5075750;28;20056;-76
2021/12/26 08:26:02;;;;;;;3.45;1.33;;;16.00;44.70;;;;;;5075519;28;20047;-73
2021/12/26 08:28:28;;;;;;;10.23;1.45;;;16.10;44.60;;;;;;5075627;28;20084;-74
2021/12/26 08:30:54;;;;;;;1.90;0.77;;;16.10;44.20;;;;;;5077579;28;20076;-74
2021/12/26 08:33:20;;;;;;;6.28;1.00;;;16.10;44.10;;;;;;5082735;28;20059;-75
2021/12/26 08:35:48;;;;;;;5.63;1.42;;;16.10;43.70;;;;;;5058196;28;20220;-77
2021/12/26 08:38:16;;;;;;;6.50;1.45;;;16.10;43.30;;;;;;5075184;28;20044;-74
2021/12/26 08:40:43;;;;;;;5.28;1.50;;;16.10;43.50;;;;;;5076026;28;20095;-75
2021/12/26 08:43:08;;;;;;;5.28;1.00;;;16.00;43.20;;;;;;5058128;28;20444;-75
2021/12/26 08:45:36;;;;;;;4.25;1.10;;;16.10;43.00;;;;;;5057814;28;20074;-74
2021/12/26 08:48:03;;;;;;;4.97;1.10;;;16.10;42.20;;;;;;5075614;28;20061;-74
2021/12/26 08:50:29;;;;;;;12.32;1.65;;;16.00;43.50;;;;;;5085931;28;20135;-71
2021/12/26 08:52:56;;;;;;;4.50;1.00;;;16.10;43.70;;;;;;5075393;28;20052;-76
2021/12/26 08:55:24;;;;;;;6.00;1.75;;;16.20;43.90;;;;;;5084219;28;20117;-74
2021/12/26 08:57:53;;;;;;;2.40;1.27;;;16.30;43.80;;;;;;5095744;28;20369;-72
2021/12/26 09:00:20;;;;;;;5.78;0.98;;;16.30;43.60;;;;;;5094638;28;20124;-73
2021/12/26 09:02:46;;;;;;;2.80;1.15;;;16.40;43.80;;;;;;5065806;28;20052;-75
2021/12/26 09:05:12;;;;;;;6.13;0.80;;;16.40;43.70;;;;;;5075119;28;20127;-74
2021/12/26 09:07:39;;;;;;;9.63;1.35;;;16.50;44.30;;;;;;5075163;28;20048;-69
2021/12/26 09:10:06;;;;;;;11.20;1.35;;;16.40;43.00;;;;;;5074934;28;20044;-70
2021/12/26 09:12:32;;;;;;;10.25;1.60;;;16.40;44.40;;;;;;5074817;28;20042;-71
2021/12/26 09:14:58;;;;;;;13.10;2.20;;;16.40;44.70;;;;;;5075008;28;20447;-76
2021/12/26 09:17:24;;;;;;;14.07;1.83;;;16.40;44.70;;;;;;5074904;28;20041;-73
2021/12/26 09:19:50;;;;;;;8.15;1.42;;;16.40;44.80;;;;;;5062972;28;20052;-71
2021/12/26 09:22:17;;;;;;;7.93;1.15;;;16.30;44.60;;;;;;5057587;28;20048;-74
2021/12/26 09:24:45;;;;;;;8.70;1.30;;;16.10;44.50;;;;;;5075014;28;20440;-77
2021/12/26 09:27:11;;;;;;;7.00;1.27;;;16.00;44.50;;;;;;5074950;28;20189;-75
2021/12/26 09:29:37;;;;;;;9.32;1.48;;;15.90;44.40;;;;;;5075248;28;20101;-75
2021/12/26 09:32:04;;;;;;;6.65;1.88;;;15.70;45.00;;;;;;5075248;28;20080;-77
2021/12/26 09:34:33;;;;;;;6.25;1.27;;;15.60;44.40;;;;;;5083465;28;20101;-77
2021/12/26 09:37:00;;;;;;;6.68;1.10;;;15.40;44.30;;;;;;5073046;28;20115;-74
2021/12/26 09:39:26;;;;;;;10.05;1.50;;;15.30;45.10;;;;;;5057335;28;20058;-75
2021/12/26 09:41:53;;;;;;;3.33;1.20;;;15.20;44.60;;;;;;5075578;28;20048;-74
2021/12/26 09:44:19;;;;;;;3.85;1.38;;;15.10;44.70;;;;;;5057672;28;20055;-75
2021/12/26 09:46:45;;;;;;;3.72;1.48;;;14.90;44.70;;;;;;5074841;28;20049;-75
2021/12/26 09:49:11;;;;;;;6.63;0.90;;;14.90;44.90;;;;;;5057297;28;20041;-74
2021/12/26 09:51:37;;;;;;;4.68;1.33;;;14.80;45.00;;;;;;5060965;28;20127;-74
2021/12/26 09:54:05;;;;;;;5.32;0.90;;;14.70;45.10;;;;;;5094935;28;20123;-75
2021/12/26 09:56:31;;;;;;;2.75;0.93;;;14.60;45.10;;;;;;5095240;28;20040;-74
2021/12/26 09:59:03;;;;;;;4.53;1.58;;;14.50;45.10;;;;;;5095074;28;20052;-76
2021/12/26 10:01:41;;;;;;;4.30;1.05;;;14.40;45.10;;;;;;5092236;28;20113;-74
2021/12/26 10:04:23;;;;;;;2.72;1.10;;;14.30;44.90;;;;;;5056910;28;20048;-74
2021/12/26 10:06:51;;;;;;;5.72;0.88;;;14.30;45.30;;;;;;5074668;28;20040;-74
2021/12/26 10:09:18;;;;;;;2.40;1.00;;;14.20;45.30;;;;;;5074323;28;20131;-76
2021/12/26 10:11:51;;;;;;;3.55;1.25;;;14.10;45.50;;;;;;5074858;28;20344;-75
2021/12/26 10:14:20;;;;;;;2.28;1.20;;;14.10;45.50;;;;;;5074562;28;20447;-74
2021/12/26 10:16:49;;;;;;;2.83;1.38;;;14.00;45.70;;;;;;5074137;28;20124;-73
2021/12/26 10:19:16;;;;;;;3.65;1.10;;;14.00;45.70;;;;;;5075208;28;20335;-74
2021/12/26 10:21:48;;;;;;;3.28;1.00;;;14.00;45.80;;;;;;5074502;28;20044;-74
2021/12/26 10:24:19;;;;;;;4.00;1.02;;;13.90;45.80;;;;;;5056950;28;20123;-75
2021/12/26 10:26:53;;;;;;;2.83;0.93;;;13.80;45.80;;;;;;5074523;28;20044;-75
2021/12/26 10:29:54;;;;;;;4.03;1.05;;;13.80;45.80;;;;;;5074837;28;20044;-73
2021/12/26 10:32:23;;;;;;;4.10;1.33;;;13.70;46.10;;;;;;5038326;28;20060;-76
2021/12/26 10:34:52;;;;;;;2.00;0.93;;;13.70;46.10;;;;;;5094816;28;20051;-77
2021/12/26 10:37:28;;;;;;;1.90;1.13;;;13.70;46.10;;;;;;5080562;28;20463;-75
2021/12/26 10:40:25;;;;;;;2.13;1.25;;;13.70;45.90;;;;;;5097783;28;20059;-76
2021/12/26 10:43:01;;;;;;;2.53;0.73;;;13.60;45.70;;;;;;5078097;28;20056;-74
2021/12/26 10:45:30;;;;;;;2.50;1.20;;;13.60;45.90;;;;;;5080325;28;20375;-75
2021/12/26 10:48:04;;;;;;;2.70;1.02;;;13.50;45.90;;;;;;5097574;28;20118;-72
2021/12/26 10:50:32;;;;;;;2.20;0.95;;;13.50;45.80;;;;;;5098039;28;20124;-75
2021/12/26 10:53:04;;;;;;;3.45;1.00;;;13.50;45.90;;;;;;5080583;28;20451;-75
2021/12/26 10:55:37;;;;;;;2.45;1.25;;;13.40;45.80;;;;;;5098489;28;20339;-76
2021/12/26 10:58:08;;;;;;;1.30;0.82;;;13.40;46.00;;;;;;5079703;28;20467;-75
2021/12/26 11:00:37;;;;;;;2.08;0.90;;;13.40;45.90;;;;;;5098011;28;20056;-76
2021/12/26 11:03:07;;;;;;;2.25;0.93;;;13.30;46.00;;;;;;5081835;28;20044;-74
2021/12/26 11:05:43;;;;;;;2.75;0.88;;;13.30;45.90;;;;;;5077703;28;20056;-74
2021/12/26 11:08:16;;;;;;;1.60;0.82;;;13.30;45.90;;;;;;5077510;28;20493;-73
2021/12/26 11:10:45;;;;;;;5.47;1.23;;;13.20;45.90;;;;;;5077989;28;20067;-74
2021/12/26 11:13:21;;;;;;;2.05;0.77;;;13.20;46.10;;;;;;5077203;28;20382;-73
2021/12/26 11:15:48;;;;;;;1.75;0.98;;;13.20;46.20;;;;;;5060062;28;20444;-74
2021/12/26 11:18:16;;;;;;;2.03;0.80;;;13.10;46.20;;;;;;5077464;28;20127;-75
2021/12/26 11:20:46;;;;;;;2.90;1.13;;;13.10;46.20;;;;;;5077552;28;20363;-75
2021/12/26 11:23:21;;;;;;;1.20;0.77;;;13.10;46.20;;;;;;5077161;28;20048;-75
2021/12/26 11:25:53;;;;;;;2.28;0.85;;;13.00;46.20;;;;;;5077387;28;20060;-76
2021/12/26 11:28:26;;;;;;;1.93;0.93;;;13.00;46.10;;;;;;5059331;28;20118;-74
2021/12/26 11:31:02;;;;;;;2.65;0.80;;;12.90;46.20;;;;;;5076806;28;20060;-76
2021/12/26 11:33:28;;;;;;;2.47;1.10;;;13.00;46.30;;;;;;5076832;28;20041;-74
2021/12/26 11:35:54;;;;;;;2.67;1.30;;;13.00;46.30;;;;;;5077080;28;20040;-75
2021/12/26 11:38:23;;;;;;;2.45;0.90;;;12.90;46.40;;;;;;5076733;28;20055;-75
2021/12/26 11:40:51;;;;;;;2.08;1.15;;;12.90;46.30;;;;;;5076436;28;20185;-76
2021/12/26 11:43:30;;;;;;;2.90;0.90;;;12.90;46.20;;;;;;5076945;28;20063;-74
2021/12/26 11:46:14;;;;;;;1.95;0.93;;;12.90;46.00;;;;;;5076690;28;20052;-74
2021/12/26 11:48:59;;;;;;;2.53;1.23;;;12.90;46.10;;;;;;5075888;28;20048;-76
2021/12/26 11:51:37;;;;;;;2.13;0.90;;;12.90;46.20;;;;;;5042666;28;20055;-75
2021/12/26 11:54:28;;;;;;;1.55;1.00;;;12.80;46.40;;;;;;5076673;28;20123;-73
2021/12/26 11:56:59;;;;;;;1.25;0.57;;;12.80;46.10;;;;;;5059643;28;20053;-74
2021/12/26 11:59:34;;;;;;;1.85;0.85;;;12.80;46.20;;;;;;5059326;28;20048;-74
2021/12/26 12:02:00;;;;;;;1.73;0.70;;;12.80;46.00;;;;;;5078530;28;20105;-75
2021/12/26 12:04:26;;;;;;;1.65;0.95;;;12.80;46.20;;;;;;5076904;28;20060;-74
2021/12/26 12:06:55;;;;;;;1.80;0.90;;;12.80;46.30;;;;;;5059359;28;20044;-75
2021/12/26 12:09:23;;;;;;;1.35;0.70;;;12.80;46.30;;;;;;5075942;28;20179;-75
2021/12/26 12:12:00;;;;;;;1.90;0.80;;;12.80;46.20;;;;;;5076418;28;20041;-76
2021/12/26 12:14:48;;;;;;;1.42;0.90;;;12.80;45.80;;;;;;5076418;28;20063;-73
2021/12/26 12:17:15;;;;;;;1.92;1.00;;;12.80;45.70;;;;;;5075993;28;20111;-75
2021/12/26 12:20:07;;;;;;;1.33;0.73;;;12.80;46.00;;;;;;5076250;28;20052;-75
2021/12/26 12:22:33;;;;;;;1.55;0.80;;;12.80;45.80;;;;;;5058213;28;20040;-75
2021/12/26 12:25:33;;;;;;;1.50;0.82;;;12.80;46.10;;;;;;5075971;28;20135;-73
2021/12/26 12:28:13;;;;;;;1.27;0.77;;;12.80;45.70;;;;;;5075849;28;20059;-73
2021/12/26 12:30:42;;;;;;;2.70;1.77;;;12.90;46.20;;;;;;5058159;28;20451;-73
2021/12/26 12:33:28;;;;;;;3.95;2.58;;;12.80;45.20;;;;;;5076041;28;20359;-72
2021/12/26 12:36:04;;;;;;;11.82;2.40;;;12.90;38.60;;;;;;5075714;28;20329;-76
2021/12/26 12:38:46;;;;;;;7.72;2.10;;;12.70;39.40;;;;;;5075476;28;20052;-75
2021/12/26 12:41:32;;;;;;;14.35;2.35;;;12.60;40.00;;;;;;5075560;28;20087;-76
2021/12/26 12:44:01;;;;;;;12.93;2.00;;;12.60;40.40;;;;;;5075543;28;20079;-74
2021/12/26 12:46:27;;;;;;;3.63;1.70;;;12.70;41.10;;;;;;5075298;28;20060;-75
2021/12/26 12:49:07;;;;;;;4.85;1.95;;;12.80;41.10;;;;;;5075712;28;20045;-76
2021/12/26 12:51:41;;;;;;;7.63;1.80;;;12.90;41.40;;;;;;5075770;28;20051;-76
2021/12/26 12:54:33;;;;;;;6.72;1.50;;;13.00;41.60;;;;;;5043467;28;20076;-77
2021/12/26 12:57:04;;;;;;;5.53;2.08;;;13.10;41.80;;;;;;5075356;28;20102;-81
2021/12/26 12:59:35;;;;;;;5.35;1.92;;;13.10;42.20;;;;;;5078982;28;20028;-75